Aérodrome :
LOGIN :

S'inscrire | Disclaimer

   EN    FR    IT 

 










Légende :    VFR   VFR Marginal   IFR   IFR Intensif   IFR Très Intensif
Visi : 
Plafond : 
>= 8 km
>= 3000ft
5 à 8 km
1000 à 3000 ft
1500m à 5 km
500 à 1000 ft
800 à 1500m
200 à 500 ft
< 800m
< 200 ft
Symboles :   Orages  Brouillard  Fortes neiges  Fortes précipitations  Vent > 20 kt
SIGMETs :   Divers  Orages  Givrage  Turbulence  Onde Orograph.  Cendres Volcan.







- Altitude de l'aérodrome : 302 ft
- Code IATA : CGN


EDDK - Cologne Bonn

DERNIER METAR :
  • 231220Z 27005KT 210V330 CAVOK 21/08 Q1018 NOSIG

METARs EXPIRÉS :
  • 231150Z 24006KT 180V270 CAVOK 21/08 Q1018 NOSIG
  • 231120Z 21006KT 160V300 CAVOK 20/08 Q1018 NOSIG
  • 231050Z VRB04KT CAVOK 20/08 Q1018 NOSIG
  • 231020Z 27004KT 210V340 CAVOK 20/08 Q1019 NOSIG
  • 230950Z VRB04KT CAVOK 20/08 Q1019 NOSIG

TAF TAF EDDK
Valide du 23 à 12h jusqu'au 24 à 18h UTC


231100Z 2312/2418 27005KT CAVOK
BECMG 2318/2320 VRB03KT
BECMG 2409/2411 28006KT
Pas de NOTAMs connus pour ce terrain.



MET'MAP, la Météo Aéronautique d'un coup d'oeil ! - Copyright ORBIFLY Décembre 2007 - Disclaimer

ORBIFLY MET'MAP TEAM :

Programmation & Développement : Alexandra Zaïnal
Conception & Développement : Baudouin d'Aumeries
Co-Programmation & Développement : Marc-Olivier Méhu
Soutien technique & logistique : Manuel Goepfert

Contact : metmap@orbifly.com




SOURCES & CREDITS :

   NOAA